DAUZ

In Aménas Airport

Airport
ICAO code
DAUZ
IATA Code
IAM
Summary
ICAO Region
AFI
ICAO Territory
Location

, Illizi

Serving
Zarzaitine
Elevation
1847 ft
Coordinates
28° 3' 6" N , 9° 38' 34" E
Metar
DAUZ 271000Z 20004KT 160V230 6000 NSC 21/M06 Q1010

Runways

Designator Length Width Surface Rops
15/33 2200 30 ASP No/No
5/23 3000 45 ASP No/No

Airport map

Aerial View

SKYbrary Partners:

Safety knowledge contributed by: